Terminal Aerodrome Forecast
Issued by NWS Springfield, MO

Home | Current Version | Previous Version | Text Only | Print | Product List | Glossary On
Versions: 1 2 3 4 5 6 7 8 9 10 11 12 13 14
000
FTUS43 KSGF 030500
TAFSGF
TAF
KSGF 030520Z 0306/0406 16010KT P6SM SCT250
     FM031500 19015KT P6SM FEW040 SCT200
     FM031800 19013G22KT P6SM SCT040 SCT250
     FM032300 18010KT P6SM SCT250=

USA.gov is the U.S. government's official web portal to all federal, state and local government web resources and services.